Date,TemperatureHighF,TemperatureAvgF,TemperatureLowF,DewpointHighF,DewpointAvgF,DewpointLowF,HumidityHigh,HumidityAvg,HumidityLow,PressureMaxIn,PressureMinIn,WindSpeedMaxMPH,WindSpeedAvgMPH,GustSpeedMaxMPH,PrecipitationSumIn
2013-12-1,59,52,44,59,50,36,99,91,74,30.30,30.14,14,2,14,0.29
2013-12-2,54,48,39,54,48,38,99,99,99,30.14,29.96,24,6,24,1.55
2013-12-3,54,41,32,41,32,23,99,73,34,30.02,29.95,13,4,13,0.00
2013-12-4,52,37,29,29,7,-13,82,36,10,30.10,30.01,18,5,18,0.00
2013-12-5,50,36,26,15,0,-13,47,25,10,30.09,30.01,12,4,12,0.00
2013-12-6,48,42,35,32,18,-13,56,40,10,30.01,29.75,21,7,21,0.48
2013-12-7,45,34,24,7,-7,-19,43,19,10,30.19,29.86,17,5,17,0.00
2013-12-8,49,34,22,11,-5,-16,49,23,10,30.35,30.18,15,4,15,0.00
2013-12-9,58,40,30,7,-10,-20,33,12,10,30.34,30.27,17,4,17,0.00
2013-12-10,53,40,30,19,1,-13,49,24,10,30.30,30.14,13,3,13,0.00
2013-12-11,63,42,34,18,4,-13,40,23,10,30.22,30.06,7,2,10,0.00
2013-12-12,56,45,33,28,8,-4,53,27,10,30.22,30.06,20,4,20,0.08
2013-12-13,68,48,38,41,21,0,62,38,10,30.26,30.13,10,2,13,0.02
2013-12-14,57,41,34,57,39,26,99,94,62,30.33,30.25,12,2,12,0.02
2013-12-15,65,44,33,65,41,31,99,91,61,30.33,30.20,12,3,12,0.02
2013-12-16,67,47,37,61,34,5,99,65,10,30.20,29.98,13,2,13,0.00
2013-12-17,68,45,38,50,31,2,93,62,10,30.07,29.99,11,3,11,0.00
2013-12-18,52,45,37,41,32,18,92,62,33,29.99,29.90,20,5,20,0.02
2013-12-19,55,44,36,18,-6,-14,33,12,10,30.08,29.97,23,7,23,0.00
2013-12-20,54,46,36,34,3,-14,60,22,10,30.07,29.95,13,2,13,0.43
2013-12-21,54,48,43,48,42,34,99,79,60,30.15,29.99,11,2,11,0.08
2013-12-22,60,48,42,60,48,42,99,99,95,30.25,30.14,11,2,13,0.02
2013-12-23,60,49,43,59,49,42,99,99,99,30.33,30.23,12,3,13,0.02
2013-12-24,61,44,38,61,44,37,99,99,99,30.34,30.19,14,3,14,0.02
2013-12-25,66,44,36,65,43,36,99,99,99,30.22,30.14,8,3,8,0.02
2013-12-26,75,46,37,67,37,4,99,77,10,30.15,30.04,6,2,6,0.02
2013-12-27,58,40,0,40,33,16,86,59,34,30.15,30.03,10,2,10,0.00
2013-12-28,64,48,36,34,14,-10,65,30,10,30.21,30.13,16,6,16,0.00
2013-12-29,69,49,36,15,5,-9,39,19,10,30.14,29.98,19,4,19,0.00
2013-12-30,68,48,39,14,7,-5,32,20,10,30.13,30.02,8,2,8,0.00
2013-12-31,64,47,39,26,14,-2,58,31,10,30.19,30.10,13,3,13,0.00